sensor_id;sensor_type;location;lat;lon;timestamp;P1;P2;P0
45700;PMS5003;36277;32.852;-116.998;2023-04-24T00:00:31;6.00;6.00;5.00
45700;PMS5003;36277;32.852;-116.998;2023-04-24T00:02:57;5.40;5.40;5.40
45700;PMS5003;36277;32.852;-116.998;2023-04-24T00:05:23;6.40;6.40;6.00
45700;PMS5003;36277;32.852;-116.998;2023-04-24T00:07:50;7.00;7.00;6.00
45700;PMS5003;36277;32.852;-116.998;2023-04-24T00:10:20;5.00;5.00;4.00
45700;PMS5003;36277;32.852;-116.998;2023-04-24T00:12:46;6.40;6.40;5.20
45700;PMS5003;36277;32.852;-116.998;2023-04-24T00:15:13;7.80;7.80;6.20
45700;PMS5003;36277;32.852;-116.998;2023-04-24T00:17:39;15.60;15.60;10.80
45700;PMS5003;36277;32.852;-116.998;2023-04-24T00:20:06;35.25;32.75;20.25
45700;PMS5003;36277;32.852;-116.998;2023-04-24T00:22:32;76.20;67.80;44.80
45700;PMS5003;36277;32.852;-116.998;2023-04-24T00:24:59;80.40;76.20;51.20
45700;PMS5003;36277;32.852;-116.998;2023-04-24T00:27:25;86.00;81.60;50.40
45700;PMS5003;36277;32.852;-116.998;2023-04-24T00:29:51;87.00;83.60;56.80
45700;PMS5003;36277;32.852;-116.998;2023-04-24T00:32:17;68.00;56.40;38.60
45700;PMS5003;36277;32.852;-116.998;2023-04-24T00:34:44;65.80;52.80;35.20
45700;PMS5003;36277;32.852;-116.998;2023-04-24T00:37:10;51.25;43.00;28.00
45700;PMS5003;36277;32.852;-116.998;2023-04-24T00:39:36;56.75;47.75;31.50
45700;PMS5003;36277;32.852;-116.998;2023-04-24T00:42:03;54.25;45.75;30.25
45700;PMS5003;36277;32.852;-116.998;2023-04-24T00:44:32;53.00;45.00;29.00
45700;PMS5003;36277;32.852;-116.998;2023-04-24T00:47:00;51.00;43.00;29.00
45700;PMS5003;36277;32.852;-116.998;2023-04-24T00:49:27;50.75;43.00;29.00
45700;PMS5003;36277;32.852;-116.998;2023-04-24T00:51:53;63.50;52.00;32.50
45700;PMS5003;36277;32.852;-116.998;2023-04-24T00:54:19;63.50;50.75;31.50
45700;PMS5003;36277;32.852;-116.998;2023-04-24T00:56:46;64.20;52.60;34.40
45700;PMS5003;36277;32.852;-116.998;2023-04-24T00:59:12;70.00;59.00;35.40
45700;PMS5003;36277;32.852;-116.998;2023-04-24T01:01:41;89.20;83.00;46.80
45700;PMS5003;36277;32.852;-116.998;2023-04-24T01:04:08;121.60;111.60;61.20
45700;PMS5003;36277;32.852;-116.998;2023-04-24T01:06:37;146.25;132.50;70.50
45700;PMS5003;36277;32.852;-116.998;2023-04-24T01:09:05;161.50;148.00;80.00
45700;PMS5003;36277;32.852;-116.998;2023-04-24T01:11:36;113.80;100.60;57.20
45700;PMS5003;36277;32.852;-116.998;2023-04-24T01:14:03;95.20;90.40;55.00
45700;PMS5003;36277;32.852;-116.998;2023-04-24T01:16:29;102.00;97.60;58.40
45700;PMS5003;36277;32.852;-116.998;2023-04-24T01:18:56;96.60;91.80;54.80
45700;PMS5003;36277;32.852;-116.998;2023-04-24T01:21:22;88.20;85.00;49.00
45700;PMS5003;36277;32.852;-116.998;2023-04-24T01:23:53;91.80;89.40;49.60
45700;PMS5003;36277;32.852;-116.998;2023-04-24T01:26:21;79.20;75.20;44.40
45700;PMS5003;36277;32.852;-116.998;2023-04-24T01:28:47;84.40;82.20;49.00
45700;PMS5003;36277;32.852;-116.998;2023-04-24T01:31:14;76.80;71.80;42.40
45700;PMS5003;36277;32.852;-116.998;2023-04-24T01:33:41;84.00;77.20;43.00
45700;PMS5003;36277;32.852;-116.998;2023-04-24T01:36:09;76.40;70.00;41.00
45700;PMS5003;36277;32.852;-116.998;2023-04-24T01:38:37;70.80;58.60;36.20
45700;PMS5003;36277;32.852;-116.998;2023-04-24T01:41:03;62.50;51.00;32.50
45700;PMS5003;36277;32.852;-116.998;2023-04-24T01:43:30;57.50;47.00;30.00
45700;PMS5003;36277;32.852;-116.998;2023-04-24T01:45:57;56.25;46.25;31.00
45700;PMS5003;36277;32.852;-116.998;2023-04-24T01:48:23;56.50;47.00;31.00
45700;PMS5003;36277;32.852;-116.998;2023-04-24T01:50:49;58.00;48.25;31.00
45700;PMS5003;36277;32.852;-116.998;2023-04-24T01:53:16;48.75;41.00;29.00
45700;PMS5003;36277;32.852;-116.998;2023-04-24T01:55:42;51.00;42.75;26.50
45700;PMS5003;36277;32.852;-116.998;2023-04-24T01:58:08;53.50;44.75;28.50
45700;PMS5003;36277;32.852;-116.998;2023-04-24T02:00:35;47.75;41.00;27.75
45700;PMS5003;36277;32.852;-116.998;2023-04-24T02:03:01;43.50;37.50;26.00
45700;PMS5003;36277;32.852;-116.998;2023-04-24T02:05:27;44.75;38.00;24.50
45700;PMS5003;36277;32.852;-116.998;2023-04-24T02:07:54;48.75;41.00;25.50
45700;PMS5003;36277;32.852;-116.998;2023-04-24T02:10:20;35.75;33.00;21.00
45700;PMS5003;36277;32.852;-116.998;2023-04-24T02:12:47;30.00;29.25;19.75
45700;PMS5003;36277;32.852;-116.998;2023-04-24T02:15:13;29.50;29.00;19.00
45700;PMS5003;36277;32.852;-116.998;2023-04-24T02:17:40;25.40;25.40;18.00
45700;PMS5003;36277;32.852;-116.998;2023-04-24T02:20:06;29.40;27.40;17.60
45700;PMS5003;36277;32.852;-116.998;2023-04-24T02:22:33;29.00;29.00;20.00
45700;PMS5003;36277;32.852;-116.998;2023-04-24T02:25:00;25.40;25.40;17.60
45700;PMS5003;36277;32.852;-116.998;2023-04-24T02:27:26;29.40;29.00;19.40
45700;PMS5003;36277;32.852;-116.998;2023-04-24T02:29:52;24.20;24.20;17.00
45700;PMS5003;36277;32.852;-116.998;2023-04-24T02:32:18;25.20;25.20;18.40
45700;PMS5003;36277;32.852;-116.998;2023-04-24T02:34:45;20.40;20.40;14.00
45700;PMS5003;36277;32.852;-116.998;2023-04-24T02:37:11;22.00;22.00;16.60
45700;PMS5003;36277;32.852;-116.998;2023-04-24T02:39:37;17.20;16.60;11.60
45700;PMS5003;36277;32.852;-116.998;2023-04-24T02:42:03;16.00;15.40;11.60
45700;PMS5003;36277;32.852;-116.998;2023-04-24T02:44:30;15.40;15.40;11.80
45700;PMS5003;36277;32.852;-116.998;2023-04-24T02:46:56;14.80;14.80;12.00
45700;PMS5003;36277;32.852;-116.998;2023-04-24T02:49:23;17.80;17.80;14.00
45700;PMS5003;36277;32.852;-116.998;2023-04-24T02:51:49;17.80;16.60;12.60
45700;PMS5003;36277;32.852;-116.998;2023-04-24T02:54:15;14.00;14.00;11.20
45700;PMS5003;36277;32.852;-116.998;2023-04-24T02:56:41;15.40;15.40;12.80
45700;PMS5003;36277;32.852;-116.998;2023-04-24T02:59:07;13.20;13.20;10.00
45700;PMS5003;36277;32.852;-116.998;2023-04-24T03:01:34;11.80;11.80;10.80
45700;PMS5003;36277;32.852;-116.998;2023-04-24T03:04:00;10.80;10.80;9.00
45700;PMS5003;36277;32.852;-116.998;2023-04-24T03:06:27;13.00;13.00;11.00
45700;PMS5003;36277;32.852;-116.998;2023-04-24T03:08:53;11.80;11.40;8.60
45700;PMS5003;36277;32.852;-116.998;2023-04-24T03:11:19;8.40;8.00;7.20
45700;PMS5003;36277;32.852;-116.998;2023-04-24T03:13:46;10.80;10.80;8.00
45700;PMS5003;36277;32.852;-116.998;2023-04-24T03:16:12;11.60;11.60;8.40
45700;PMS5003;36277;32.852;-116.998;2023-04-24T03:18:38;12.40;12.40;9.00
45700;PMS5003;36277;32.852;-116.998;2023-04-24T03:21:04;10.40;10.40;8.00
45700;PMS5003;36277;32.852;-116.998;2023-04-24T03:23:31;10.20;10.20;8.40
45700;PMS5003;36277;32.852;-116.998;2023-04-24T03:25:57;10.60;10.60;7.40
45700;PMS5003;36277;32.852;-116.998;2023-04-24T03:28:23;10.80;10.80;9.00
45700;PMS5003;36277;32.852;-116.998;2023-04-24T03:30:50;9.40;9.40;7.60
45700;PMS5003;36277;32.852;-116.998;2023-04-24T03:33:17;9.60;9.60;8.20
45700;PMS5003;36277;32.852;-116.998;2023-04-24T03:35:43;9.20;9.20;6.80
45700;PMS5003;36277;32.852;-116.998;2023-04-24T03:38:10;8.40;8.40;5.20
45700;PMS5003;36277;32.852;-116.998;2023-04-24T03:40:36;9.60;9.60;8.20
45700;PMS5003;36277;32.852;-116.998;2023-04-24T03:43:02;9.40;9.40;7.60
45700;PMS5003;36277;32.852;-116.998;2023-04-24T03:45:28;7.60;7.40;7.00
45700;PMS5003;36277;32.852;-116.998;2023-04-24T03:47:55;7.40;7.40;6.20
45700;PMS5003;36277;32.852;-116.998;2023-04-24T03:50:21;9.00;9.00;6.60
45700;PMS5003;36277;32.852;-116.998;2023-04-24T03:52:47;10.00;10.00;8.60
45700;PMS5003;36277;32.852;-116.998;2023-04-24T03:55:14;5.20;5.20;4.40
45700;PMS5003;36277;32.852;-116.998;2023-04-24T03:57:40;5.20;5.20;4.60
45700;PMS5003;36277;32.852;-116.998;2023-04-24T04:00:07;7.80;7.80;6.20
45700;PMS5003;36277;32.852;-116.998;2023-04-24T04:02:34;6.80;6.80;6.20
45700;PMS5003;36277;32.852;-116.998;2023-04-24T04:05:00;8.40;8.40;6.60
45700;PMS5003;36277;32.852;-116.998;2023-04-24T04:07:27;7.20;7.20;5.40
45700;PMS5003;36277;32.852;-116.998;2023-04-24T04:09:55;7.60;7.60;5.80
45700;PMS5003;36277;32.852;-116.998;2023-04-24T04:12:21;8.00;8.00;5.80
45700;PMS5003;36277;32.852;-116.998;2023-04-24T04:14:47;7.20;7.20;5.60
45700;PMS5003;36277;32.852;-116.998;2023-04-24T04:17:13;5.40;5.40;4.60
45700;PMS5003;36277;32.852;-116.998;2023-04-24T04:19:40;6.40;6.40;5.00
45700;PMS5003;36277;32.852;-116.998;2023-04-24T04:22:07;7.00;7.00;5.40
45700;PMS5003;36277;32.852;-116.998;2023-04-24T04:24:33;8.40;8.40;5.20
45700;PMS5003;36277;32.852;-116.998;2023-04-24T04:27:03;5.00;5.00;4.80
45700;PMS5003;36277;32.852;-116.998;2023-04-24T04:29:30;6.20;6.20;4.40
45700;PMS5003;36277;32.852;-116.998;2023-04-24T04:31:57;6.60;6.60;6.00
45700;PMS5003;36277;32.852;-116.998;2023-04-24T04:34:23;5.00;5.00;4.20
45700;PMS5003;36277;32.852;-116.998;2023-04-24T04:36:50;7.60;7.60;5.60
45700;PMS5003;36277;32.852;-116.998;2023-04-24T04:39:16;5.20;5.20;4.20
45700;PMS5003;36277;32.852;-116.998;2023-04-24T04:41:44;4.40;4.40;3.40
45700;PMS5003;36277;32.852;-116.998;2023-04-24T04:44:14;5.20;4.80;4.20
45700;PMS5003;36277;32.852;-116.998;2023-04-24T04:46:40;6.00;6.00;4.80
45700;PMS5003;36277;32.852;-116.998;2023-04-24T04:49:07;6.20;6.20;5.40
45700;PMS5003;36277;32.852;-116.998;2023-04-24T04:51:34;6.40;6.40;5.40
45700;PMS5003;36277;32.852;-116.998;2023-04-24T04:54:00;7.00;7.00;6.20
45700;PMS5003;36277;32.852;-116.998;2023-04-24T04:56:27;5.20;5.20;4.60
45700;PMS5003;36277;32.852;-116.998;2023-04-24T04:58:53;5.00;5.00;4.80
45700;PMS5003;36277;32.852;-116.998;2023-04-24T05:01:19;5.00;5.00;4.40
45700;PMS5003;36277;32.852;-116.998;2023-04-24T05:03:48;5.20;5.20;3.80
45700;PMS5003;36277;32.852;-116.998;2023-04-24T05:06:14;5.40;5.40;4.80
45700;PMS5003;36277;32.852;-116.998;2023-04-24T05:08:40;4.60;4.60;3.40
45700;PMS5003;36277;32.852;-116.998;2023-04-24T05:11:07;4.80;4.80;4.80
45700;PMS5003;36277;32.852;-116.998;2023-04-24T05:13:33;5.40;5.40;4.40
45700;PMS5003;36277;32.852;-116.998;2023-04-24T05:15:59;6.60;6.60;5.60
45700;PMS5003;36277;32.852;-116.998;2023-04-24T05:18:26;5.40;5.40;5.00
45700;PMS5003;36277;32.852;-116.998;2023-04-24T05:20:52;5.60;5.60;4.60
45700;PMS5003;36277;32.852;-116.998;2023-04-24T05:23:18;5.60;5.60;4.80
45700;PMS5003;36277;32.852;-116.998;2023-04-24T05:25:44;6.40;6.40;6.00
45700;PMS5003;36277;32.852;-116.998;2023-04-24T05:28:11;6.20;6.20;5.60
45700;PMS5003;36277;32.852;-116.998;2023-04-24T05:30:37;5.00;5.00;4.80
45700;PMS5003;36277;32.852;-116.998;2023-04-24T05:33:04;3.80;3.80;1.80
45700;PMS5003;36277;32.852;-116.998;2023-04-24T05:35:30;5.00;5.00;4.00
45700;PMS5003;36277;32.852;-116.998;2023-04-24T05:37:56;7.00;7.00;6.00
45700;PMS5003;36277;32.852;-116.998;2023-04-24T05:40:22;5.20;5.20;4.60
45700;PMS5003;36277;32.852;-116.998;2023-04-24T05:42:49;6.40;6.40;5.80
45700;PMS5003;36277;32.852;-116.998;2023-04-24T05:45:15;5.40;5.40;4.00
45700;PMS5003;36277;32.852;-116.998;2023-04-24T05:47:42;5.00;5.00;4.40
45700;PMS5003;36277;32.852;-116.998;2023-04-24T05:50:09;7.00;7.00;6.00
45700;PMS5003;36277;32.852;-116.998;2023-04-24T05:52:36;5.00;5.00;4.80
45700;PMS5003;36277;32.852;-116.998;2023-04-24T05:55:03;5.80;5.80;4.00
45700;PMS5003;36277;32.852;-116.998;2023-04-24T05:57:29;5.20;5.20;4.80
45700;PMS5003;36277;32.852;-116.998;2023-04-24T05:59:55;6.40;6.40;5.40
45700;PMS5003;36277;32.852;-116.998;2023-04-24T06:02:22;6.20;6.20;4.60
45700;PMS5003;36277;32.852;-116.998;2023-04-24T06:04:48;5.80;5.80;4.80
45700;PMS5003;36277;32.852;-116.998;2023-04-24T06:07:14;6.40;6.40;5.80
45700;PMS5003;36277;32.852;-116.998;2023-04-24T06:09:41;6.00;6.00;5.00
45700;PMS5003;36277;32.852;-116.998;2023-04-24T06:12:07;4.00;4.00;4.00
45700;PMS5003;36277;32.852;-116.998;2023-04-24T06:14:34;5.00;5.00;4.80
45700;PMS5003;36277;32.852;-116.998;2023-04-24T06:17:00;4.20;4.20;4.00
45700;PMS5003;36277;32.852;-116.998;2023-04-24T06:19:26;5.00;5.00;4.00
45700;PMS5003;36277;32.852;-116.998;2023-04-24T06:21:52;5.20;5.20;4.00
45700;PMS5003;36277;32.852;-116.998;2023-04-24T06:24:18;6.20;6.20;5.00
45700;PMS5003;36277;32.852;-116.998;2023-04-24T06:26:45;1.00;1.00;0.60
45700;PMS5003;36277;32.852;-116.998;2023-04-24T06:29:11;6.00;6.00;5.00
45700;PMS5003;36277;32.852;-116.998;2023-04-24T06:31:37;4.80;4.80;4.80
45700;PMS5003;36277;32.852;-116.998;2023-04-24T06:34:04;6.60;6.60;5.00
45700;PMS5003;36277;32.852;-116.998;2023-04-24T06:36:30;6.00;6.00;5.00
45700;PMS5003;36277;32.852;-116.998;2023-04-24T06:38:59;5.40;5.40;5.00
45700;PMS5003;36277;32.852;-116.998;2023-04-24T06:41:25;5.60;5.60;5.00
45700;PMS5003;36277;32.852;-116.998;2023-04-24T06:43:52;7.00;7.00;5.00
45700;PMS5003;36277;32.852;-116.998;2023-04-24T06:46:18;5.00;5.00;4.00
45700;PMS5003;36277;32.852;-116.998;2023-04-24T06:48:47;5.60;5.00;4.60
45700;PMS5003;36277;32.852;-116.998;2023-04-24T06:51:13;5.00;5.00;4.00
45700;PMS5003;36277;32.852;-116.998;2023-04-24T06:53:39;5.40;5.40;5.40
45700;PMS5003;36277;32.852;-116.998;2023-04-24T06:56:06;5.40;5.40;4.60
45700;PMS5003;36277;32.852;-116.998;2023-04-24T06:58:32;5.00;5.00;4.00
45700;PMS5003;36277;32.852;-116.998;2023-04-24T07:00:58;5.00;5.00;4.20
45700;PMS5003;36277;32.852;-116.998;2023-04-24T07:03:24;4.80;4.80;4.00
45700;PMS5003;36277;32.852;-116.998;2023-04-24T07:05:51;3.00;3.00;3.00
45700;PMS5003;36277;32.852;-116.998;2023-04-24T07:08:18;6.00;6.00;5.80
45700;PMS5003;36277;32.852;-116.998;2023-04-24T07:10:45;5.00;5.00;4.00
45700;PMS5003;36277;32.852;-116.998;2023-04-24T07:13:12;4.80;4.80;4.00
45700;PMS5003;36277;32.852;-116.998;2023-04-24T07:15:38;5.20;5.20;4.20
45700;PMS5003;36277;32.852;-116.998;2023-04-24T07:18:06;5.80;5.80;5.00
45700;PMS5003;36277;32.852;-116.998;2023-04-24T07:20:32;6.20;6.20;5.80
45700;PMS5003;36277;32.852;-116.998;2023-04-24T07:22:59;5.80;5.80;4.80
45700;PMS5003;36277;32.852;-116.998;2023-04-24T07:25:25;6.00;6.00;5.00
45700;PMS5003;36277;32.852;-116.998;2023-04-24T07:27:53;5.00;5.00;4.00
45700;PMS5003;36277;32.852;-116.998;2023-04-24T07:30:22;5.00;5.00;4.00
45700;PMS5003;36277;32.852;-116.998;2023-04-24T07:32:55;5.00;5.00;4.00
45700;PMS5003;36277;32.852;-116.998;2023-04-24T07:35:22;4.60;4.60;4.00
45700;PMS5003;36277;32.852;-116.998;2023-04-24T07:37:51;6.00;6.00;5.00
45700;PMS5003;36277;32.852;-116.998;2023-04-24T07:40:19;5.00;5.00;5.00
45700;PMS5003;36277;32.852;-116.998;2023-04-24T07:42:46;4.40;4.40;4.00
45700;PMS5003;36277;32.852;-116.998;2023-04-24T07:45:13;6.00;6.00;5.00
45700;PMS5003;36277;32.852;-116.998;2023-04-24T07:47:43;5.40;5.40;5.00
45700;PMS5003;36277;32.852;-116.998;2023-04-24T07:50:11;5.00;5.00;5.00
45700;PMS5003;36277;32.852;-116.998;2023-04-24T07:52:38;4.60;4.60;4.00
45700;PMS5003;36277;32.852;-116.998;2023-04-24T07:55:04;4.00;4.00;4.00
45700;PMS5003;36277;32.852;-116.998;2023-04-24T07:57:32;5.00;5.00;4.80
45700;PMS5003;36277;32.852;-116.998;2023-04-24T07:59:58;5.00;5.00;4.20
45700;PMS5003;36277;32.852;-116.998;2023-04-24T08:02:24;4.20;4.20;3.40
45700;PMS5003;36277;32.852;-116.998;2023-04-24T08:04:54;4.00;4.00;3.60
45700;PMS5003;36277;32.852;-116.998;2023-04-24T08:07:20;4.80;4.80;4.00
45700;PMS5003;36277;32.852;-116.998;2023-04-24T08:09:47;4.00;4.00;3.00
45700;PMS5003;36277;32.852;-116.998;2023-04-24T08:12:13;4.00;4.00;3.00
45700;PMS5003;36277;32.852;-116.998;2023-04-24T08:14:40;5.00;5.00;4.00
45700;PMS5003;36277;32.852;-116.998;2023-04-24T08:17:06;4.00;4.00;3.20
45700;PMS5003;36277;32.852;-116.998;2023-04-24T08:19:33;3.40;3.40;3.00
45700;PMS5003;36277;32.852;-116.998;2023-04-24T08:21:59;4.60;4.60;4.40
45700;PMS5003;36277;32.852;-116.998;2023-04-24T08:24:25;5.00;5.00;4.00
45700;PMS5003;36277;32.852;-116.998;2023-04-24T08:26:52;5.00;5.00;4.40
45700;PMS5003;36277;32.852;-116.998;2023-04-24T08:29:19;4.60;4.60;4.60
45700;PMS5003;36277;32.852;-116.998;2023-04-24T08:31:46;4.40;4.40;4.00
45700;PMS5003;36277;32.852;-116.998;2023-04-24T08:34:12;5.40;5.40;4.20
45700;PMS5003;36277;32.852;-116.998;2023-04-24T08:36:38;5.00;5.00;4.20
45700;PMS5003;36277;32.852;-116.998;2023-04-24T08:39:06;6.00;5.80;4.80
45700;PMS5003;36277;32.852;-116.998;2023-04-24T08:41:33;5.00;5.00;4.20
45700;PMS5003;36277;32.852;-116.998;2023-04-24T08:44:00;4.40;4.40;4.00
45700;PMS5003;36277;32.852;-116.998;2023-04-24T08:46:28;5.60;5.60;4.80
45700;PMS5003;36277;32.852;-116.998;2023-04-24T08:48:55;5.20;5.20;4.40
45700;PMS5003;36277;32.852;-116.998;2023-04-24T08:51:22;5.00;5.00;4.00
45700;PMS5003;36277;32.852;-116.998;2023-04-24T08:53:53;5.20;5.20;5.00
45700;PMS5003;36277;32.852;-116.998;2023-04-24T08:56:21;4.00;4.00;3.80
45700;PMS5003;36277;32.852;-116.998;2023-04-24T08:58:51;5.60;5.60;4.60
45700;PMS5003;36277;32.852;-116.998;2023-04-24T09:01:20;5.00;5.00;4.00
45700;PMS5003;36277;32.852;-116.998;2023-04-24T09:03:48;5.00;5.00;4.00
45700;PMS5003;36277;32.852;-116.998;2023-04-24T09:06:16;3.00;3.00;2.60
45700;PMS5003;36277;32.852;-116.998;2023-04-24T09:08:45;5.40;5.40;5.00
45700;PMS5003;36277;32.852;-116.998;2023-04-24T09:11:12;4.80;4.80;4.60
45700;PMS5003;36277;32.852;-116.998;2023-04-24T09:13:38;4.00;4.00;3.80
45700;PMS5003;36277;32.852;-116.998;2023-04-24T09:16:05;5.20;5.20;4.60
45700;PMS5003;36277;32.852;-116.998;2023-04-24T09:18:32;5.60;5.60;4.40
45700;PMS5003;36277;32.852;-116.998;2023-04-24T09:21:01;4.40;4.40;4.00
45700;PMS5003;36277;32.852;-116.998;2023-04-24T09:23:30;4.00;4.00;4.00
45700;PMS5003;36277;32.852;-116.998;2023-04-24T09:25:57;5.00;5.00;5.00
45700;PMS5003;36277;32.852;-116.998;2023-04-24T09:28:31;6.60;6.60;5.40
45700;PMS5003;36277;32.852;-116.998;2023-04-24T09:33:51;4.80;4.80;4.40
45700;PMS5003;36277;32.852;-116.998;2023-04-24T09:36:19;4.00;4.00;3.80
45700;PMS5003;36277;32.852;-116.998;2023-04-24T09:38:53;3.00;3.00;3.00
45700;PMS5003;36277;32.852;-116.998;2023-04-24T09:41:23;4.00;4.00;3.60
45700;PMS5003;36277;32.852;-116.998;2023-04-24T09:43:49;4.00;4.00;3.00
45700;PMS5003;36277;32.852;-116.998;2023-04-24T09:46:15;4.80;4.80;4.00
45700;PMS5003;36277;32.852;-116.998;2023-04-24T09:48:44;4.40;4.40;4.20
45700;PMS5003;36277;32.852;-116.998;2023-04-24T09:51:11;4.00;4.00;3.60
45700;PMS5003;36277;32.852;-116.998;2023-04-24T09:53:38;4.00;4.00;4.00
45700;PMS5003;36277;32.852;-116.998;2023-04-24T09:56:08;4.00;4.00;3.00
45700;PMS5003;36277;32.852;-116.998;2023-04-24T09:58:35;4.40;4.40;3.80
45700;PMS5003;36277;32.852;-116.998;2023-04-24T10:01:02;5.00;5.00;4.00
45700;PMS5003;36277;32.852;-116.998;2023-04-24T10:03:32;5.00;5.00;4.20
45700;PMS5003;36277;32.852;-116.998;2023-04-24T10:06:00;4.60;4.60;4.00
45700;PMS5003;36277;32.852;-116.998;2023-04-24T10:08:34;5.00;5.00;4.00
45700;PMS5003;36277;32.852;-116.998;2023-04-24T10:11:02;3.00;3.00;3.00
45700;PMS5003;36277;32.852;-116.998;2023-04-24T10:13:29;4.00;4.00;3.80
45700;PMS5003;36277;32.852;-116.998;2023-04-24T10:15:56;4.00;4.00;3.80
45700;PMS5003;36277;32.852;-116.998;2023-04-24T10:18:25;4.60;4.60;4.60
45700;PMS5003;36277;32.852;-116.998;2023-04-24T10:20:52;4.00;4.00;3.20
45700;PMS5003;36277;32.852;-116.998;2023-04-24T10:23:20;2.80;2.80;2.00
45700;PMS5003;36277;32.852;-116.998;2023-04-24T10:25:47;3.60;3.60;3.00
45700;PMS5003;36277;32.852;-116.998;2023-04-24T10:28:16;4.80;4.80;4.60
45700;PMS5003;36277;32.852;-116.998;2023-04-24T10:30:44;4.20;4.20;4.00
45700;PMS5003;36277;32.852;-116.998;2023-04-24T10:33:12;2.40;2.40;2.00
45700;PMS5003;36277;32.852;-116.998;2023-04-24T10:35:42;4.40;4.40;4.40
45700;PMS5003;36277;32.852;-116.998;2023-04-24T10:38:15;5.00;5.00;4.00
45700;PMS5003;36277;32.852;-116.998;2023-04-24T10:40:49;4.40;4.40;4.00
45700;PMS5003;36277;32.852;-116.998;2023-04-24T10:43:16;5.00;5.00;4.00
45700;PMS5003;36277;32.852;-116.998;2023-04-24T10:46:05;4.00;4.00;3.40
45700;PMS5003;36277;32.852;-116.998;2023-04-24T10:48:31;6.00;6.00;4.80
45700;PMS5003;36277;32.852;-116.998;2023-04-24T10:50:59;4.40;4.40;3.40
45700;PMS5003;36277;32.852;-116.998;2023-04-24T10:53:29;5.00;5.00;4.00
45700;PMS5003;36277;32.852;-116.998;2023-04-24T10:56:05;5.00;5.00;4.40
45700;PMS5003;36277;32.852;-116.998;2023-04-24T10:58:41;6.00;6.00;5.00
45700;PMS5003;36277;32.852;-116.998;2023-04-24T11:01:27;4.00;4.00;3.40
45700;PMS5003;36277;32.852;-116.998;2023-04-24T11:03:55;5.40;5.40;5.00
45700;PMS5003;36277;32.852;-116.998;2023-04-24T11:06:33;5.20;5.20;4.20
45700;PMS5003;36277;32.852;-116.998;2023-04-24T11:09:04;4.00;4.00;4.00
45700;PMS5003;36277;32.852;-116.998;2023-04-24T11:11:34;5.60;5.60;4.60
45700;PMS5003;36277;32.852;-116.998;2023-04-24T11:14:03;4.80;4.80;4.20
45700;PMS5003;36277;32.852;-116.998;2023-04-24T11:21:41;5.80;5.80;5.00
45700;PMS5003;36277;32.852;-116.998;2023-04-24T11:29:48;5.20;5.20;4.60
45700;PMS5003;36277;32.852;-116.998;2023-04-24T11:32:24;5.00;5.00;4.20
45700;PMS5003;36277;32.852;-116.998;2023-04-24T11:34:56;5.00;5.00;4.20
45700;PMS5003;36277;32.852;-116.998;2023-04-24T11:37:24;4.60;4.60;4.00
45700;PMS5003;36277;32.852;-116.998;2023-04-24T11:39:54;5.60;5.60;4.60
45700;PMS5003;36277;32.852;-116.998;2023-04-24T11:42:23;4.00;4.00;3.40
45700;PMS5003;36277;32.852;-116.998;2023-04-24T11:44:54;5.00;5.00;4.00
45700;PMS5003;36277;32.852;-116.998;2023-04-24T11:47:30;3.00;3.00;3.00
45700;PMS5003;36277;32.852;-116.998;2023-04-24T11:49:59;4.80;4.80;4.20
45700;PMS5003;36277;32.852;-116.998;2023-04-24T11:52:26;4.60;4.60;4.00
45700;PMS5003;36277;32.852;-116.998;2023-04-24T11:54:53;5.00;5.00;4.00
45700;PMS5003;36277;32.852;-116.998;2023-04-24T11:57:19;5.00;5.00;4.60
45700;PMS5003;36277;32.852;-116.998;2023-04-24T11:59:47;4.20;4.20;4.00
45700;PMS5003;36277;32.852;-116.998;2023-04-24T12:02:20;4.00;4.00;3.00
45700;PMS5003;36277;32.852;-116.998;2023-04-24T12:04:54;4.20;4.20;4.00
45700;PMS5003;36277;32.852;-116.998;2023-04-24T12:07:21;5.20;5.20;4.80
45700;PMS5003;36277;32.852;-116.998;2023-04-24T12:09:57;5.20;5.20;4.20
45700;PMS5003;36277;32.852;-116.998;2023-04-24T12:12:25;5.00;5.00;4.80
45700;PMS5003;36277;32.852;-116.998;2023-04-24T12:14:54;4.00;4.00;4.00
45700;PMS5003;36277;32.852;-116.998;2023-04-24T12:17:28;4.00;4.00;3.00
45700;PMS5003;36277;32.852;-116.998;2023-04-24T12:20:05;4.00;4.00;3.00
45700;PMS5003;36277;32.852;-116.998;2023-04-24T12:22:43;5.00;5.00;4.00
45700;PMS5003;36277;32.852;-116.998;2023-04-24T12:25:15;5.80;5.80;4.80
45700;PMS5003;36277;32.852;-116.998;2023-04-24T12:27:43;5.00;5.00;5.00
45700;PMS5003;36277;32.852;-116.998;2023-04-24T12:30:14;4.20;4.20;4.00
45700;PMS5003;36277;32.852;-116.998;2023-04-24T12:32:42;5.00;5.00;4.00
45700;PMS5003;36277;32.852;-116.998;2023-04-24T12:35:13;3.00;3.00;3.00
45700;PMS5003;36277;32.852;-116.998;2023-04-24T12:37:50;4.20;4.20;4.20
45700;PMS5003;36277;32.852;-116.998;2023-04-24T12:40:16;5.40;5.40;4.00
45700;PMS5003;36277;32.852;-116.998;2023-04-24T12:42:48;5.00;5.00;5.00
45700;PMS5003;36277;32.852;-116.998;2023-04-24T12:45:16;5.40;5.40;5.00
45700;PMS5003;36277;32.852;-116.998;2023-04-24T12:47:44;5.20;5.20;4.20
45700;PMS5003;36277;32.852;-116.998;2023-04-24T12:50:12;6.00;6.00;5.00
45700;PMS5003;36277;32.852;-116.998;2023-04-24T12:52:40;4.80;4.80;4.80
45700;PMS5003;36277;32.852;-116.998;2023-04-24T12:55:07;4.20;4.20;4.00
45700;PMS5003;36277;32.852;-116.998;2023-04-24T12:57:34;5.20;5.20;5.00
45700;PMS5003;36277;32.852;-116.998;2023-04-24T13:00:01;5.80;5.80;5.00
45700;PMS5003;36277;32.852;-116.998;2023-04-24T13:02:29;3.80;3.80;3.40
45700;PMS5003;36277;32.852;-116.998;2023-04-24T13:04:57;5.00;5.00;4.00
45700;PMS5003;36277;32.852;-116.998;2023-04-24T13:07:24;5.40;5.40;4.40
45700;PMS5003;36277;32.852;-116.998;2023-04-24T13:09:51;6.00;6.00;5.00
45700;PMS5003;36277;32.852;-116.998;2023-04-24T13:12:18;6.60;6.60;5.20
45700;PMS5003;36277;32.852;-116.998;2023-04-24T13:14:45;5.80;5.80;5.00
45700;PMS5003;36277;32.852;-116.998;2023-04-24T13:17:12;5.80;5.80;5.00
45700;PMS5003;36277;32.852;-116.998;2023-04-24T13:19:40;5.00;5.00;4.00
45700;PMS5003;36277;32.852;-116.998;2023-04-24T13:22:08;5.00;5.00;4.00
45700;PMS5003;36277;32.852;-116.998;2023-04-24T13:24:36;5.00;5.00;4.00
45700;PMS5003;36277;32.852;-116.998;2023-04-24T13:27:05;6.00;6.00;5.00
45700;PMS5003;36277;32.852;-116.998;2023-04-24T13:29:31;5.60;5.60;4.20
45700;PMS5003;36277;32.852;-116.998;2023-04-24T13:31:57;5.00;5.00;4.00
45700;PMS5003;36277;32.852;-116.998;2023-04-24T13:34:23;5.60;5.60;4.40
45700;PMS5003;36277;32.852;-116.998;2023-04-24T13:36:52;4.80;4.80;4.00
45700;PMS5003;36277;32.852;-116.998;2023-04-24T13:39:19;5.20;5.20;5.00
45700;PMS5003;36277;32.852;-116.998;2023-04-24T13:41:46;5.40;5.40;5.00
45700;PMS5003;36277;32.852;-116.998;2023-04-24T13:44:14;5.00;5.00;4.00
45700;PMS5003;36277;32.852;-116.998;2023-04-24T13:46:41;6.00;6.00;4.60
45700;PMS5003;36277;32.852;-116.998;2023-04-24T13:49:09;4.80;4.80;4.00
45700;PMS5003;36277;32.852;-116.998;2023-04-24T13:51:36;5.80;5.80;5.40